Terminal Aerodrome Forecast
Issued by NWS

Home | Current Version | Previous Version | Text Only | Print | Product List | Glossary On
Versions: 1 2 3 4 5 6 7 8 9 10 11 12 13 14 15 16
000
FTUS46 KLOX 242342
TAFPMD
TAF
KPMD 242342Z 2500/2524 22018G24KT P6SM SKC
     FM250400 22015G20KT P6SM SKC
     FM250800 24017G22KT P6SM BKN050
     FM251200 22014KT P6SM BKN050
     FM251800 25017G22KT P6SM SCT050
     FM252100 24022G30KT P6SM SCT050=

USA.gov is the U.S. government's official web portal to all federal, state and local government web resources and services.